Time;durP1;ratioP1;P1;durP2;ratioP2;P2;SDS_P1;SDS_P2;PMS_P1;PMS_P2;Temp;Humidity;BMP_temperature;BMP_pressure;BME280_temperature;BME280_humidity;BME280_pressure;Samples;Min_cycle;Max_cycle;Signal;HPM_P1;HPM_P2
2023/04/23 00:01:34;;;;;;;4.40;4.00;;;;;;;;;;5062672;28;20214;-85
2023/04/23 00:04:01;;;;;;;6.13;3.47;;;;;;;;;;5053579;28;20209;-85
2023/04/23 00:06:29;;;;;;;10.87;4.30;;;;;;;;;;5061082;28;20260;-84
2023/04/23 00:08:57;;;;;;;11.77;4.63;;;;;;;;;;5039897;28;20266;-85
2023/04/23 00:11:26;;;;;;;7.77;5.57;;;;;;;;;;5059449;28;20630;-85
2023/04/23 00:13:55;;;;;;;10.37;5.60;;;;;;;;;;5049789;28;20202;-86
2023/04/23 00:16:23;;;;;;;8.03;5.83;;;;;;;;;;5062073;28;20753;-85
2023/04/23 00:18:50;;;;;;;4.83;4.33;;;;;;;;;;5066320;28;20240;-85
2023/04/23 00:21:17;;;;;;;4.40;4.00;;;;;;;;;;5061835;28;20209;-85
2023/04/23 00:23:44;;;;;;;4.63;3.87;;;;;;;;;;5057266;28;20201;-85
2023/04/23 00:26:11;;;;;;;6.90;4.70;;;;;;;;;;5059084;28;20214;-85
2023/04/23 00:28:38;;;;;;;7.40;4.73;;;;;;;;;;5063786;28;20206;-85
2023/04/23 00:31:07;;;;;;;12.73;5.50;;;;;;;;;;5063039;28;20201;-85
2023/04/23 00:33:35;;;;;;;6.10;4.77;;;;;;;;;;5070766;28;20204;-85
2023/04/23 00:36:02;;;;;;;5.37;4.07;;;;;;;;;;5027822;28;20211;-85
2023/04/23 00:38:29;;;;;;;5.97;3.77;;;;;;;;;;5063908;28;20656;-85
2023/04/23 00:40:56;;;;;;;5.93;4.20;;;;;;;;;;5057982;28;20685;-85
2023/04/23 00:43:23;;;;;;;11.30;4.17;;;;;;;;;;5062513;28;20202;-85
2023/04/23 00:45:50;;;;;;;3.93;3.63;;;;;;;;;;5051095;28;20213;-85
2023/04/23 00:48:18;;;;;;;6.67;4.83;;;;;;;;;;5044015;28;20205;-85
2023/04/23 00:50:46;;;;;;;4.60;4.17;;;;;;;;;;5057437;28;20206;-85
2023/04/23 00:53:13;;;;;;;8.10;4.07;;;;;;;;;;5033189;28;20267;-85
2023/04/23 00:55:40;;;;;;;10.67;5.73;;;;;;;;;;5064579;28;20259;-85
2023/04/23 00:58:08;;;;;;;7.20;3.80;;;;;;;;;;5069676;28;20224;-85
2023/04/23 01:00:36;;;;;;;5.73;4.07;;;;;;;;;;5052561;28;20205;-85
2023/04/23 01:03:04;;;;;;;4.50;3.40;;;;;;;;;;5070649;28;20270;-85
2023/04/23 01:05:32;;;;;;;4.87;4.47;;;;;;;;;;5036178;28;20258;-85
2023/04/23 01:08:00;;;;;;;7.67;4.60;;;;;;;;;;5070529;28;20213;-85
2023/04/23 01:10:27;;;;;;;4.67;4.27;;;;;;;;;;5055308;28;20210;-85
2023/04/23 01:12:55;;;;;;;7.13;4.20;;;;;;;;;;5060332;28;20216;-90
2023/04/23 01:15:22;;;;;;;6.47;5.33;;;;;;;;;;5060715;28;20206;-85
2023/04/23 01:17:49;;;;;;;6.90;6.20;;;;;;;;;;5065019;28;20666;-84
2023/04/23 01:20:16;;;;;;;7.13;5.57;;;;;;;;;;5069805;28;20259;-84
2023/04/23 01:22:44;;;;;;;6.63;4.53;;;;;;;;;;5073794;28;20211;-85
2023/04/23 01:25:12;;;;;;;4.17;3.77;;;;;;;;;;5053183;28;20226;-85
2023/04/23 01:27:39;;;;;;;3.60;3.07;;;;;;;;;;5062689;28;20208;-85
2023/04/23 01:30:07;;;;;;;4.23;3.83;;;;;;;;;;5072817;28;20209;-85
2023/04/23 01:32:35;;;;;;;7.63;4.43;;;;;;;;;;5063769;28;20209;-85
2023/04/23 01:35:03;;;;;;;6.20;3.27;;;;;;;;;;5071361;28;20680;-84
2023/04/23 01:37:30;;;;;;;6.47;4.17;;;;;;;;;;5074137;28;20205;-85
2023/04/23 01:39:59;;;;;;;7.40;4.03;;;;;;;;;;5055736;28;20719;-84
2023/04/23 01:42:27;;;;;;;4.60;4.13;;;;;;;;;;5066084;28;20619;-85
2023/04/23 01:44:54;;;;;;;4.83;3.50;;;;;;;;;;5056157;28;20209;-84
2023/04/23 01:47:21;;;;;;;6.07;4.33;;;;;;;;;;5059702;28;20699;-85
2023/04/23 01:49:48;;;;;;;5.37;3.30;;;;;;;;;;5067364;28;20622;-84
2023/04/23 01:52:15;;;;;;;7.20;3.87;;;;;;;;;;5023643;28;20214;-85
2023/04/23 01:54:43;;;;;;;5.87;3.47;;;;;;;;;;5071689;28;20217;-85
2023/04/23 01:57:11;;;;;;;7.43;4.13;;;;;;;;;;5060935;28;20197;-85
2023/04/23 01:59:38;;;;;;;9.17;3.60;;;;;;;;;;5073282;28;20235;-85
2023/04/23 02:02:09;;;;;;;6.47;4.10;;;;;;;;;;5073397;28;20213;-86
2023/04/23 02:04:37;;;;;;;4.90;4.07;;;;;;;;;;5048114;28;20209;-85
2023/04/23 02:07:04;;;;;;;5.83;4.33;;;;;;;;;;5058794;28;20202;-85
2023/04/23 02:09:31;;;;;;;7.80;3.53;;;;;;;;;;5059696;28;20240;-85
2023/04/23 02:11:58;;;;;;;4.80;3.93;;;;;;;;;;5059114;28;20206;-86
2023/04/23 02:14:26;;;;;;;4.07;3.67;;;;;;;;;;5027398;28;20218;-84
2023/04/23 02:16:54;;;;;;;4.97;3.70;;;;;;;;;;5060594;28;20209;-85
2023/04/23 02:19:22;;;;;;;3.20;2.90;;;;;;;;;;5060681;28;20224;-85
2023/04/23 02:21:49;;;;;;;9.33;3.30;;;;;;;;;;5052690;28;20209;-85
2023/04/23 02:24:16;;;;;;;7.00;5.00;;;;;;;;;;5060943;28;20784;-85
2023/04/23 02:26:43;;;;;;;3.70;3.13;;;;;;;;;;5072496;28;20213;-85
2023/04/23 02:29:11;;;;;;;4.53;3.30;;;;;;;;;;5055537;28;20212;-85
2023/04/23 02:31:39;;;;;;;6.93;3.50;;;;;;;;;;5054904;28;20211;-85
2023/04/23 02:34:07;;;;;;;4.13;3.00;;;;;;;;;;5062663;28;20190;-85
2023/04/23 02:36:34;;;;;;;3.97;3.43;;;;;;;;;;5055468;28;20205;-85
2023/04/23 02:39:02;;;;;;;8.17;3.80;;;;;;;;;;5040804;28;20728;-85
2023/04/23 02:41:29;;;;;;;4.97;3.60;;;;;;;;;;5044922;28;20306;-89
2023/04/23 02:43:56;;;;;;;3.03;2.83;;;;;;;;;;5052846;28;20213;-85
2023/04/23 02:46:23;;;;;;;4.60;2.80;;;;;;;;;;5071690;28;20213;-84
2023/04/23 02:48:51;;;;;;;6.03;2.63;;;;;;;;;;5061457;28;20222;-84
2023/04/23 02:51:18;;;;;;;10.00;3.60;;;;;;;;;;5065999;28;20284;-86
2023/04/23 02:53:45;;;;;;;4.00;3.00;;;;;;;;;;5063127;28;20236;-85
2023/04/23 02:56:12;;;;;;;3.50;3.23;;;;;;;;;;5067088;28;20260;-85
2023/04/23 02:58:39;;;;;;;6.43;3.60;;;;;;;;;;5062927;28;20237;-85
2023/04/23 03:01:06;;;;;;;4.83;3.23;;;;;;;;;;5057883;28;20630;-85
2023/04/23 03:03:34;;;;;;;2.77;2.57;;;;;;;;;;5058635;28;20268;-85
2023/04/23 03:06:02;;;;;;;6.70;3.07;;;;;;;;;;5044655;28;20242;-86
2023/04/23 03:08:29;;;;;;;5.80;3.53;;;;;;;;;;5057936;28;20683;-85
2023/04/23 03:10:56;;;;;;;4.17;3.20;;;;;;;;;;5072058;28;20613;-84
2023/04/23 03:13:24;;;;;;;4.83;3.10;;;;;;;;;;5038221;28;20659;-85
2023/04/23 03:15:52;;;;;;;4.27;3.50;;;;;;;;;;5072149;28;20232;-84
2023/04/23 03:18:19;;;;;;;4.03;3.43;;;;;;;;;;5058280;28;20755;-84
2023/04/23 03:20:46;;;;;;;3.70;3.13;;;;;;;;;;5062952;28;20206;-85
2023/04/23 03:23:14;;;;;;;6.60;3.07;;;;;;;;;;5064906;28;20323;-85
2023/04/23 03:25:41;;;;;;;7.63;3.50;;;;;;;;;;5058475;28;20260;-85
2023/04/23 03:28:09;;;;;;;4.57;3.53;;;;;;;;;;5070268;28;20699;-85
2023/04/23 03:30:37;;;;;;;3.30;3.10;;;;;;;;;;5071675;28;20266;-85
2023/04/23 03:33:05;;;;;;;7.53;3.40;;;;;;;;;;5067939;28;20208;-85
2023/04/23 03:35:32;;;;;;;7.93;3.93;;;;;;;;;;5060358;28;20262;-86
2023/04/23 03:37:59;;;;;;;6.30;3.60;;;;;;;;;;5069721;28;20217;-85
2023/04/23 03:40:28;;;;;;;3.90;3.57;;;;;;;;;;5071426;28;20780;-85
2023/04/23 03:42:56;;;;;;;3.07;2.83;;;;;;;;;;5068044;28;20742;-84
2023/04/23 03:45:23;;;;;;;5.20;3.13;;;;;;;;;;5061053;28;20209;-85
2023/04/23 03:47:50;;;;;;;5.37;3.40;;;;;;;;;;5058208;28;20254;-84
2023/04/23 03:50:17;;;;;;;4.33;3.30;;;;;;;;;;5061448;28;20212;-85
2023/04/23 03:52:44;;;;;;;3.90;3.10;;;;;;;;;;5067980;28;20216;-85
2023/04/23 03:55:11;;;;;;;4.53;3.73;;;;;;;;;;5061444;28;20566;-85
2023/04/23 03:57:39;;;;;;;6.00;3.33;;;;;;;;;;5051528;28;20584;-85
2023/04/23 04:00:10;;;;;;;7.43;3.40;;;;;;;;;;5061235;28;20232;-86
2023/04/23 04:02:37;;;;;;;5.90;3.80;;;;;;;;;;5056339;28;20205;-85
2023/04/23 04:05:05;;;;;;;3.87;3.53;;;;;;;;;;5058797;28;20258;-85
2023/04/23 04:07:32;;;;;;;9.27;7.37;;;;;;;;;;5057022;28;20213;-85
2023/04/23 04:10:01;;;;;;;17.50;11.33;;;;;;;;;;5062640;28;20209;-84
2023/04/23 04:12:28;;;;;;;8.40;6.23;;;;;;;;;;5053543;28;20202;-85
2023/04/23 04:14:56;;;;;;;6.70;4.47;;;;;;;;;;5060309;28;20213;-85
2023/04/23 04:17:23;;;;;;;6.17;4.80;;;;;;;;;;5047838;28;20274;-85
2023/04/23 04:19:50;;;;;;;5.67;5.07;;;;;;;;;;5069517;28;20229;-84
2023/04/23 04:22:17;;;;;;;6.63;5.57;;;;;;;;;;5036063;28;20625;-84
2023/04/23 04:24:46;;;;;;;5.73;5.13;;;;;;;;;;5044168;28;20264;-85
2023/04/23 04:27:13;;;;;;;8.43;6.27;;;;;;;;;;5036781;28;20276;-85
2023/04/23 04:29:40;;;;;;;10.63;7.27;;;;;;;;;;5033404;28;20255;-87
2023/04/23 04:32:10;;;;;;;15.40;11.63;;;;;;;;;;5063969;28;20255;-85
2023/04/23 04:34:37;;;;;;;16.37;11.83;;;;;;;;;;5058087;28;20268;-88
2023/04/23 04:37:09;;;;;;;9.77;7.13;;;;;;;;;;5070473;28;20209;-90
2023/04/23 04:39:37;;;;;;;10.20;6.67;;;;;;;;;;5063321;28;20676;-89
2023/04/23 04:42:06;;;;;;;7.50;6.80;;;;;;;;;;5040495;28;20210;-89
2023/04/23 04:44:33;;;;;;;9.43;7.43;;;;;;;;;;5062853;28;20213;-90
2023/04/23 04:47:03;;;;;;;14.53;9.73;;;;;;;;;;5060868;28;20208;-90
2023/04/23 04:49:32;;;;;;;12.27;10.77;;;;;;;;;;5058127;28;20213;-90
2023/04/23 04:52:00;;;;;;;11.20;10.10;;;;;;;;;;5066158;28;20216;-89
2023/04/23 04:54:29;;;;;;;18.37;12.07;;;;;;;;;;5070365;28;20694;-89
2023/04/23 04:56:57;;;;;;;27.57;20.53;;;;;;;;;;5066781;28;20209;-89
2023/04/23 04:59:25;;;;;;;21.23;16.50;;;;;;;;;;5070642;28;20291;-89
2023/04/23 05:01:52;;;;;;;13.93;12.63;;;;;;;;;;5066753;28;20602;-86
2023/04/23 05:04:19;;;;;;;18.93;13.00;;;;;;;;;;5069112;28;20279;-83
2023/04/23 05:06:48;;;;;;;22.30;20.00;;;;;;;;;;5053355;28;20209;-83
2023/04/23 05:09:16;;;;;;;26.53;23.83;;;;;;;;;;5067065;28;20202;-83
2023/04/23 05:11:43;;;;;;;19.23;16.90;;;;;;;;;;5052886;28;20218;-83
2023/04/23 05:14:11;;;;;;;15.30;13.73;;;;;;;;;;5058957;28;20216;-82
2023/04/23 05:16:37;;;;;;;13.73;12.33;;;;;;;;;;5072289;28;20213;-83
2023/04/23 05:19:05;;;;;;;13.37;10.67;;;;;;;;;;5073799;28;20237;-83
2023/04/23 05:21:32;;;;;;;12.17;10.87;;;;;;;;;;5059362;28;20210;-83
2023/04/23 05:24:00;;;;;;;23.83;18.30;;;;;;;;;;5067316;28;20205;-82
2023/04/23 05:26:28;;;;;;;14.00;12.00;;;;;;;;;;5066499;28;20228;-85
2023/04/23 05:28:55;;;;;;;19.57;15.53;;;;;;;;;;5052471;28;20214;-83
2023/04/23 05:31:23;;;;;;;26.23;20.57;;;;;;;;;;5050072;28;20248;-86
2023/04/23 05:33:50;;;;;;;15.87;12.30;;;;;;;;;;5036520;28;20224;-86
2023/04/23 05:36:17;;;;;;;17.87;11.87;;;;;;;;;;5066876;28;20213;-86
2023/04/23 05:38:44;;;;;;;14.30;9.63;;;;;;;;;;5064521;28;20221;-86
2023/04/23 05:41:13;;;;;;;23.63;18.23;;;;;;;;;;5067383;28;20205;-87
2023/04/23 05:43:40;;;;;;;19.93;17.30;;;;;;;;;;5072400;28;20212;-86
2023/04/23 05:46:08;;;;;;;10.90;9.23;;;;;;;;;;5072519;28;20564;-87
2023/04/23 05:48:35;;;;;;;6.27;5.73;;;;;;;;;;5053719;28;20595;-87
2023/04/23 05:51:02;;;;;;;7.00;5.70;;;;;;;;;;5056706;28;20210;-86
2023/04/23 05:53:30;;;;;;;5.87;5.27;;;;;;;;;;5056054;28;20213;-84
2023/04/23 05:55:57;;;;;;;5.47;4.97;;;;;;;;;;5072693;28;20213;-84
2023/04/23 05:58:26;;;;;;;7.27;4.67;;;;;;;;;;5063273;28;20240;-84
2023/04/23 06:00:54;;;;;;;7.10;4.97;;;;;;;;;;5066153;28;20274;-93
2023/04/23 06:03:21;;;;;;;9.97;7.93;;;;;;;;;;5064902;28;20828;-94
2023/04/23 06:05:49;;;;;;;11.00;6.43;;;;;;;;;;5073997;28;20213;-92
2023/04/23 06:08:17;;;;;;;6.90;6.27;;;;;;;;;;5062848;28;20206;-93
2023/04/23 06:10:49;;;;;;;7.63;6.37;;;;;;;;;;5071076;28;20269;-93
2023/04/23 06:13:16;;;;;;;9.57;5.50;;;;;;;;;;5072571;28;20201;-92
2023/04/23 06:15:44;;;;;;;5.33;4.83;;;;;;;;;;5067497;28;20198;-92
2023/04/23 06:18:12;;;;;;;6.70;5.77;;;;;;;;;;5065894;28;20706;-93
2023/04/23 06:20:38;;;;;;;6.47;5.43;;;;;;;;;;5060238;28;20266;-93
2023/04/23 06:23:05;;;;;;;8.10;4.70;;;;;;;;;;5060680;28;20202;-93
2023/04/23 06:25:32;;;;;;;7.03;4.90;;;;;;;;;;5060755;28;20646;-92
2023/04/23 06:27:59;;;;;;;6.50;5.00;;;;;;;;;;5070253;28;20263;-92
2023/04/23 06:30:26;;;;;;;5.67;4.63;;;;;;;;;;5074266;28;20208;-86
2023/04/23 06:32:56;;;;;;;7.53;4.27;;;;;;;;;;5071797;28;20632;-84
2023/04/23 06:35:26;;;;;;;8.33;5.07;;;;;;;;;;5047843;28;20205;-84
2023/04/23 06:37:53;;;;;;;6.90;4.57;;;;;;;;;;5057384;28;20220;-84
2023/04/23 06:40:19;;;;;;;5.50;5.10;;;;;;;;;;5052155;28;20234;-84
2023/04/23 06:42:47;;;;;;;6.70;5.77;;;;;;;;;;5060449;28;20209;-84
2023/04/23 06:45:14;;;;;;;5.63;4.10;;;;;;;;;;5059807;28;20233;-82
2023/04/23 06:47:41;;;;;;;5.70;4.33;;;;;;;;;;5059189;28;20695;-84
2023/04/23 06:50:11;;;;;;;6.00;5.40;;;;;;;;;;5063428;28;20210;-84
2023/04/23 06:52:38;;;;;;;4.70;4.30;;;;;;;;;;5068527;28;20205;-84
2023/04/23 06:55:08;;;;;;;7.93;4.70;;;;;;;;;;5072574;28;20216;-88
2023/04/23 06:57:35;;;;;;;5.53;4.73;;;;;;;;;;5055709;28;20665;-89
2023/04/23 07:00:02;;;;;;;7.20;5.20;;;;;;;;;;5052268;28;20233;-87
2023/04/23 07:02:29;;;;;;;4.23;3.87;;;;;;;;;;5047984;28;20744;-87
2023/04/23 07:04:59;;;;;;;4.40;3.67;;;;;;;;;;5041287;28;20644;-86
2023/04/23 07:07:27;;;;;;;4.80;4.10;;;;;;;;;;5041358;28;20209;-86
2023/04/23 07:09:54;;;;;;;5.17;3.63;;;;;;;;;;5054026;28;20210;-87
2023/04/23 07:12:22;;;;;;;18.67;6.63;;;;;;;;;;5054571;28;20251;-86
2023/04/23 07:14:52;;;;;;;7.60;4.30;;;;;;;;;;5041588;28;20238;-86
2023/04/23 07:17:19;;;;;;;3.60;3.30;;;;;;;;;;5061131;28;20710;-86
2023/04/23 07:19:46;;;;;;;3.90;2.97;;;;;;;;;;5050545;28;20311;-86
2023/04/23 07:22:13;;;;;;;3.70;3.40;;;;;;;;;;5061600;28;20206;-87
2023/04/23 07:24:42;;;;;;;5.97;3.30;;;;;;;;;;5069139;28;20244;-87
2023/04/23 07:27:09;;;;;;;5.53;3.60;;;;;;;;;;5060571;28;20205;-87
2023/04/23 07:29:37;;;;;;;5.20;3.13;;;;;;;;;;5055701;28;20691;-87
2023/04/23 07:32:04;;;;;;;5.77;3.10;;;;;;;;;;5061060;28;20209;-86
2023/04/23 07:34:31;;;;;;;6.83;3.37;;;;;;;;;;5051034;28;20197;-87
2023/04/23 07:36:58;;;;;;;7.50;3.53;;;;;;;;;;5052027;28;20202;-86
2023/04/23 07:39:26;;;;;;;4.17;3.00;;;;;;;;;;5050525;28;20205;-86
2023/04/23 07:41:55;;;;;;;13.13;9.07;;;;;;;;;;5062120;28;20212;-86
2023/04/23 07:44:25;;;;;;;55.30;25.50;;;;;;;;;;5057285;28;20262;-86
2023/04/23 07:46:52;;;;;;;8.23;5.03;;;;;;;;;;5057232;28;20320;-86
2023/04/23 07:49:20;;;;;;;6.07;3.20;;;;;;;;;;5053555;28;20206;-86
2023/04/23 07:51:49;;;;;;;5.57;2.80;;;;;;;;;;5064765;28;20219;-85
2023/04/23 07:54:16;;;;;;;4.17;3.17;;;;;;;;;;5076301;28;20197;-86
2023/04/23 07:56:43;;;;;;;5.50;3.03;;;;;;;;;;5057814;28;20205;-88
2023/04/23 07:59:11;;;;;;;7.57;2.97;;;;;;;;;;5069762;28;20212;-86
2023/04/23 08:01:38;;;;;;;3.80;3.30;;;;;;;;;;5063540;28;20229;-86
2023/04/23 08:04:04;;;;;;;4.37;3.13;;;;;;;;;;5065859;28;20216;-85
2023/04/23 08:06:33;;;;;;;4.00;2.50;;;;;;;;;;5071429;28;20212;-86
2023/04/23 08:09:05;;;;;;;8.27;2.90;;;;;;;;;;5057496;28;20206;-86
2023/04/23 08:11:32;;;;;;;6.30;3.07;;;;;;;;;;5071230;28;20212;-87
2023/04/23 08:14:00;;;;;;;4.13;2.70;;;;;;;;;;5068962;28;20270;-86
2023/04/23 08:16:28;;;;;;;3.83;3.37;;;;;;;;;;5060533;28;20215;-86
2023/04/23 08:18:55;;;;;;;6.37;3.40;;;;;;;;;;5071311;28;20213;-86
2023/04/23 08:21:23;;;;;;;6.77;3.50;;;;;;;;;;5064813;28;20727;-85
2023/04/23 08:23:50;;;;;;;10.37;3.53;;;;;;;;;;5073008;28;20612;-86
2023/04/23 08:26:16;;;;;;;4.70;3.23;;;;;;;;;;5067437;28;20205;-84
2023/04/23 08:28:43;;;;;;;4.50;2.50;;;;;;;;;;5058472;28;20267;-84
2023/04/23 08:31:10;;;;;;;6.33;2.93;;;;;;;;;;5070850;28;20271;-85
2023/04/23 08:33:38;;;;;;;4.33;2.83;;;;;;;;;;5057849;28;20202;-83
2023/04/23 08:36:05;;;;;;;3.20;2.90;;;;;;;;;;5044748;28;20202;-84
2023/04/23 08:38:32;;;;;;;4.37;3.03;;;;;;;;;;5044731;28;20646;-84
2023/04/23 08:40:59;;;;;;;6.80;2.70;;;;;;;;;;5070711;28;20298;-84
2023/04/23 08:43:31;;;;;;;5.20;3.87;;;;;;;;;;5058111;28;20202;-85
2023/04/23 08:46:00;;;;;;;5.60;3.27;;;;;;;;;;5057846;28;20261;-85
2023/04/23 08:48:27;;;;;;;3.93;2.50;;;;;;;;;;5066018;28;20206;-85
2023/04/23 08:50:57;;;;;;;7.70;3.07;;;;;;;;;;5063906;28;20211;-85
2023/04/23 08:53:26;;;;;;;3.40;2.50;;;;;;;;;;5069056;28;20206;-84
2023/04/23 08:55:54;;;;;;;4.40;2.70;;;;;;;;;;5071148;28;20292;-85
2023/04/23 08:58:22;;;;;;;4.67;3.40;;;;;;;;;;5062165;28;20216;-85
2023/04/23 09:00:49;;;;;;;3.73;3.43;;;;;;;;;;5077668;28;20297;-85
2023/04/23 09:03:16;;;;;;;6.87;2.80;;;;;;;;;;5050901;28;20279;-86
2023/04/23 09:05:44;;;;;;;6.63;3.43;;;;;;;;;;5067088;28;20203;-88
2023/04/23 09:08:12;;;;;;;3.43;2.30;;;;;;;;;;5063626;28;20201;-86
2023/04/23 09:10:40;;;;;;;5.00;3.27;;;;;;;;;;5077236;28;20260;-86
2023/04/23 09:13:08;;;;;;;5.60;2.17;;;;;;;;;;5064338;28;20215;-85
2023/04/23 09:15:42;;;;;;;4.00;3.20;;;;;;;;;;5048790;28;20220;-86
2023/04/23 09:18:09;;;;;;;3.90;2.77;;;;;;;;;;5049359;28;20207;-91
2023/04/23 09:20:37;;;;;;;5.17;2.90;;;;;;;;;;5059982;28;20315;-85
2023/04/23 09:23:07;;;;;;;8.47;2.73;;;;;;;;;;5063806;28;20700;-84
2023/04/23 09:25:36;;;;;;;1310.30;273.33;;;;;;;;;;5063619;28;20242;-87
2023/04/23 09:28:07;;;;;;;10.13;6.53;;;;;;;;;;5070738;28;20209;-86
2023/04/23 09:30:39;;;;;;;1999.90;503.40;;;;;;;;;;5072288;28;20265;-86
2023/04/23 09:33:08;;;;;;;236.33;47.23;;;;;;;;;;5075940;28;20215;-85
2023/04/23 09:35:35;;;;;;;5.37;3.07;;;;;;;;;;5059222;28;20705;-85
2023/04/23 09:38:06;;;;;;;6.07;3.13;;;;;;;;;;5071216;28;20269;-86
2023/04/23 09:40:35;;;;;;;4.37;2.33;;;;;;;;;;5055597;28;20258;-85
2023/04/23 09:43:04;;;;;;;4.40;2.83;;;;;;;;;;5061595;28;20733;-86
2023/04/23 09:45:34;;;;;;;3.63;2.53;;;;;;;;;;5058721;28;20206;-85
2023/04/23 09:48:01;;;;;;;7.77;2.80;;;;;;;;;;5044283;28;20609;-85
2023/04/23 09:50:35;;;;;;;4.67;2.83;;;;;;;;;;5060582;28;20282;-86
2023/04/23 09:53:03;;;;;;;3.00;2.80;;;;;;;;;;5054667;28;20264;-85
2023/04/23 09:55:34;;;;;;;5.73;3.70;;;;;;;;;;5052602;28;20209;-85
2023/04/23 09:58:03;;;;;;;8.43;3.60;;;;;;;;;;5071736;28;20751;-85
2023/04/23 10:00:33;;;;;;;4.03;2.90;;;;;;;;;;5061735;28;20269;-86
2023/04/23 10:03:01;;;;;;;7.17;4.50;;;;;;;;;;5071611;28;20270;-86
2023/04/23 10:05:28;;;;;;;6.57;3.40;;;;;;;;;;5058380;28;20209;-85
2023/04/23 10:07:56;;;;;;;5.60;5.10;;;;;;;;;;5062680;28;20208;-85
2023/04/23 10:10:24;;;;;;;7.57;2.93;;;;;;;;;;5060478;28;20698;-86
2023/04/23 10:12:53;;;;;;;2.73;2.40;;;;;;;;;;5033275;28;20210;-85
2023/04/23 10:15:23;;;;;;;3.10;2.83;;;;;;;;;;5034806;28;20659;-86
2023/04/23 10:17:54;;;;;;;5.30;2.80;;;;;;;;;;5045377;28;20197;-86
2023/04/23 10:20:22;;;;;;;6.10;2.90;;;;;;;;;;5052018;28;20229;-86
2023/04/23 10:22:49;;;;;;;2.80;2.47;;;;;;;;;;5051661;28;20210;-85
2023/04/23 10:25:16;;;;;;;3.63;2.67;;;;;;;;;;5062272;28;20233;-87
2023/04/23 10:27:45;;;;;;;6.30;2.93;;;;;;;;;;5046383;28;20706;-87
2023/04/23 10:30:13;;;;;;;4.93;3.10;;;;;;;;;;5061140;28;20216;-89
2023/04/23 10:32:43;;;;;;;1973.90;412.50;;;;;;;;;;5070330;28;20334;-86
2023/04/23 10:35:10;;;;;;;8.03;4.00;;;;;;;;;;5061081;28;20213;-85
2023/04/23 10:37:40;;;;;;;7.47;4.23;;;;;;;;;;5071429;28;20205;-84
2023/04/23 10:40:10;;;;;;;8.10;3.20;;;;;;;;;;5058546;28;20193;-88
2023/04/23 10:42:38;;;;;;;5.73;3.30;;;;;;;;;;5071733;28;20314;-85
2023/04/23 10:45:13;;;;;;;15.20;8.83;;;;;;;;;;5054060;28;20205;-85
2023/04/23 10:47:42;;;;;;;13.53;7.00;;;;;;;;;;5060934;28;20568;-84
2023/04/23 10:50:20;;;;;;;7.20;4.37;;;;;;;;;;5060142;28;20219;-85
2023/04/23 10:52:52;;;;;;;3.43;3.13;;;;;;;;;;5041964;28;20209;-85
2023/04/23 10:55:24;;;;;;;7.40;2.93;;;;;;;;;;5042901;28;20244;-85
2023/04/23 10:57:58;;;;;;;3.13;2.83;;;;;;;;;;5053389;28;20209;-84
2023/04/23 11:00:26;;;;;;;4.47;2.33;;;;;;;;;;5068723;28;20220;-85
2023/04/23 11:02:58;;;;;;;3.37;2.30;;;;;;;;;;5064140;28;20205;-83
2023/04/23 11:05:27;;;;;;;2.90;2.60;;;;;;;;;;5053200;28;20206;-85
2023/04/23 11:08:06;;;;;;;3.40;2.80;;;;;;;;;;5051131;28;20738;-86
2023/04/23 11:10:33;;;;;;;4.67;2.57;;;;;;;;;;5072146;28;20212;-85
2023/04/23 11:13:24;;;;;;;5.63;2.30;;;;;;;;;;5068685;28;20295;-85
2023/04/23 11:16:12;;;;;;;2.53;2.33;;;;;;;;;;5064948;28;20703;-85
2023/04/23 11:19:11;;;;;;;2.67;2.23;;;;;;;;;;5050483;28;20209;-85
2023/04/23 11:22:00;;;;;;;3.30;2.33;;;;;;;;;;5059223;28;20224;-84
2023/04/23 11:24:28;;;;;;;6.23;3.17;;;;;;;;;;5057835;28;20237;-85
2023/04/23 11:26:58;;;;;;;3.47;2.50;;;;;;;;;;5071582;28;20216;-85
2023/04/23 11:29:27;;;;;;;5.53;3.33;;;;;;;;;;5053453;28;20760;-86
2023/04/23 11:31:56;;;;;;;7.30;2.67;;;;;;;;;;5063011;28;20308;-86
2023/04/23 11:34:25;;;;;;;3.47;2.83;;;;;;;;;;5071996;28;20667;-86
2023/04/23 11:36:53;;;;;;;3.93;2.83;;;;;;;;;;5059611;28;20233;-86
2023/04/23 11:39:21;;;;;;;6.50;3.07;;;;;;;;;;5051311;28;20296;-86
2023/04/23 11:41:51;;;;;;;4.33;2.67;;;;;;;;;;5051634;28;20321;-86
2023/04/23 11:44:18;;;;;;;35.37;9.50;;;;;;;;;;5038904;28;20194;-86
2023/04/23 11:46:49;;;;;;;10.33;2.80;;;;;;;;;;5064091;28;20201;-86
2023/04/23 11:49:16;;;;;;;913.93;174.47;;;;;;;;;;5072221;28;20231;-87
2023/04/23 11:51:45;;;;;;;3.70;2.50;;;;;;;;;;5062869;28;20614;-86
2023/04/23 11:54:13;;;;;;;2.70;2.30;;;;;;;;;;5051689;28;20718;-85
2023/04/23 11:56:40;;;;;;;5.47;2.67;;;;;;;;;;5050893;28;20727;-85
2023/04/23 11:59:08;;;;;;;22.93;7.13;;;;;;;;;;5067283;28;20212;-86
2023/04/23 12:01:43;;;;;;;6.83;3.33;;;;;;;;;;5064691;28;20228;-86
2023/04/23 12:04:11;;;;;;;8.73;4.80;;;;;;;;;;5055545;28;20196;-87
2023/04/23 12:06:44;;;;;;;1182.87;250.90;;;;;;;;;;5060510;28;20602;-86
2023/04/23 12:09:14;;;;;;;3.63;3.03;;;;;;;;;;5069659;28;20205;-86
2023/04/23 12:11:43;;;;;;;5.60;2.73;;;;;;;;;;5071130;28;20220;-85
2023/04/23 12:14:11;;;;;;;4.70;2.67;;;;;;;;;;5071231;28;20597;-86
2023/04/23 12:16:40;;;;;;;5.83;2.80;;;;;;;;;;5057876;28;20633;-86
2023/04/23 12:19:10;;;;;;;4.30;2.80;;;;;;;;;;5038144;28;20209;-86
2023/04/23 12:21:55;;;;;;;3.47;2.57;;;;;;;;;;5064666;28;20290;-86
2023/04/23 12:24:31;;;;;;;4.10;2.47;;;;;;;;;;5050918;28;20229;-86
2023/04/23 12:26:59;;;;;;;4.37;2.40;;;;;;;;;;5056109;28;20204;-86
2023/04/23 12:29:26;;;;;;;5.07;2.93;;;;;;;;;;5071239;28;20219;-86
2023/04/23 12:31:57;;;;;;;3.90;3.27;;;;;;;;;;5069739;28;20720;-86
2023/04/23 12:34:25;;;;;;;11.73;6.43;;;;;;;;;;5056702;28;20753;-85
2023/04/23 12:36:54;;;;;;;3.40;3.10;;;;;;;;;;5062595;28;20215;-86
2023/04/23 12:39:32;;;;;;;6.43;3.93;;;;;;;;;;5063421;28;20321;-86
2023/04/23 12:42:01;;;;;;;4.90;3.43;;;;;;;;;;5070823;28;20319;-85
2023/04/23 12:44:28;;;;;;;4.60;3.23;;;;;;;;;;5055522;28;20637;-86
2023/04/23 12:46:56;;;;;;;3.23;3.00;;;;;;;;;;5041677;28;20214;-85
2023/04/23 12:49:23;;;;;;;3.87;2.73;;;;;;;;;;5059560;28;20198;-85
2023/04/23 12:51:51;;;;;;;7.70;4.03;;;;;;;;;;5061226;28;20206;-87
2023/04/23 12:54:18;;;;;;;2.97;2.60;;;;;;;;;;5050271;28;20669;-86
2023/04/23 12:56:46;;;;;;;3.33;3.03;;;;;;;;;;5034931;28;20203;-85
2023/04/23 12:59:13;;;;;;;5.67;3.17;;;;;;;;;;5070658;28;20209;-85
2023/04/23 13:01:40;;;;;;;3.67;3.00;;;;;;;;;;5054396;28;20221;-85
2023/04/23 13:04:07;;;;;;;3.80;3.30;;;;;;;;;;5050432;28;20213;-85
2023/04/23 13:06:34;;;;;;;4.43;3.10;;;;;;;;;;5067187;28;20212;-84
2023/04/23 13:09:02;;;;;;;5.90;3.37;;;;;;;;;;5062604;28;20284;-85
2023/04/23 13:11:29;;;;;;;4.03;2.80;;;;;;;;;;5057886;28;20209;-85
2023/04/23 13:13:57;;;;;;;6.47;3.37;;;;;;;;;;5074458;28;20201;-83
2023/04/23 13:16:24;;;;;;;3.57;3.13;;;;;;;;;;5070349;28;20214;-83
2023/04/23 13:18:51;;;;;;;4.53;3.07;;;;;;;;;;5065284;28;20561;-86
2023/04/23 13:21:18;;;;;;;5.97;2.70;;;;;;;;;;5069587;28;20293;-83
2023/04/23 13:23:45;;;;;;;7.53;3.30;;;;;;;;;;5065113;28;20205;-82
2023/04/23 13:26:12;;;;;;;5.13;3.87;;;;;;;;;;5059701;28;20229;-83
2023/04/23 13:28:39;;;;;;;3.73;2.50;;;;;;;;;;5074045;28;20212;-85
2023/04/23 13:31:10;;;;;;;10.00;5.67;;;;;;;;;;5060454;28;20201;-85
2023/04/23 13:33:41;;;;;;;6.63;3.93;;;;;;;;;;5061957;28;20218;-85
2023/04/23 13:36:08;;;;;;;4.30;3.90;;;;;;;;;;5054582;28;20202;-85
2023/04/23 13:38:35;;;;;;;3.87;3.10;;;;;;;;;;5073540;28;20258;-84
2023/04/23 13:41:02;;;;;;;4.23;3.83;;;;;;;;;;5071195;28;20209;-85
2023/04/23 13:43:29;;;;;;;5.53;2.93;;;;;;;;;;5053834;28;20229;-85
2023/04/23 13:45:55;;;;;;;4.63;2.30;;;;;;;;;;5056689;28;20213;-85
2023/04/23 13:48:27;;;;;;;4.63;3.77;;;;;;;;;;5063856;28;20267;-86
2023/04/23 13:50:54;;;;;;;5.93;4.00;;;;;;;;;;5057729;28;20240;-85
2023/04/23 13:53:21;;;;;;;8.03;3.07;;;;;;;;;;5073591;28;20201;-85
2023/04/23 13:55:51;;;;;;;4.20;2.60;;;;;;;;;;5057106;28;20201;-85
2023/04/23 13:58:18;;;;;;;5.40;3.13;;;;;;;;;;5062929;28;20259;-85
2023/04/23 14:00:45;;;;;;;3.20;2.90;;;;;;;;;;5066762;28;20210;-85
2023/04/23 14:03:12;;;;;;;4.27;2.83;;;;;;;;;;5064605;28;20279;-84
2023/04/23 14:05:40;;;;;;;2.67;2.47;;;;;;;;;;5060117;28;20200;-85
2023/04/23 14:08:07;;;;;;;4.03;2.93;;;;;;;;;;5061670;28;20209;-85
2023/04/23 14:10:36;;;;;;;4.27;2.80;;;;;;;;;;5053318;28;20217;-85
2023/04/23 14:13:03;;;;;;;3.63;2.67;;;;;;;;;;5038798;28;20202;-85
2023/04/23 14:15:30;;;;;;;3.77;2.67;;;;;;;;;;5066062;28;20292;-85
2023/04/23 14:17:56;;;;;;;6.27;2.73;;;;;;;;;;5053604;28;20206;-87
2023/04/23 14:20:23;;;;;;;2.87;2.67;;;;;;;;;;5066217;28;20206;-93
2023/04/23 14:22:57;;;;;;;5.00;3.37;;;;;;;;;;5065391;28;20729;-87
2023/04/23 14:25:25;;;;;;;4.10;3.20;;;;;;;;;;5066198;28;20233;-92
2023/04/23 14:27:56;;;;;;;5.10;4.57;;;;;;;;;;5068101;28;20303;-87
2023/04/23 14:30:25;;;;;;;3.37;3.07;;;;;;;;;;5056789;28;20209;-89
2023/04/23 14:32:53;;;;;;;3.97;2.57;;;;;;;;;;5056381;28;20200;-88
2023/04/23 14:35:21;;;;;;;2.63;2.23;;;;;;;;;;5046868;28;20205;-87
2023/04/23 14:37:48;;;;;;;3.30;2.60;;;;;;;;;;5059812;28;20208;-88
2023/04/23 14:40:19;;;;;;;4.30;2.80;;;;;;;;;;5066258;28;20208;-87
2023/04/23 14:42:48;;;;;;;2.70;2.50;;;;;;;;;;5066050;28;20259;-87
2023/04/23 14:45:16;;;;;;;2.50;2.30;;;;;;;;;;5059611;28;20219;-88